sensor_id;sensor_type;location;lat;lon;timestamp;P1;durP1;ratioP1;P2;durP2;ratioP2
21645;SDS011;10984;45.712;4.800;2022-12-07T00:04:12;18.02;;;9.18;;
21645;SDS011;10984;45.712;4.800;2022-12-07T00:06:41;20.67;;;9.32;;
21645;SDS011;10984;45.712;4.800;2022-12-07T00:11:52;19.02;;;9.05;;
21645;SDS011;10984;45.712;4.800;2022-12-07T00:14:18;19.65;;;9.48;;
21645;SDS011;10984;45.712;4.800;2022-12-07T00:16:44;18.80;;;8.93;;
21645;SDS011;10984;45.712;4.800;2022-12-07T00:19:11;18.38;;;9.32;;
21645;SDS011;10984;45.712;4.800;2022-12-07T00:21:38;19.45;;;8.20;;
21645;SDS011;10984;45.712;4.800;2022-12-07T00:24:04;15.52;;;6.88;;
21645;SDS011;10984;45.712;4.800;2022-12-07T00:26:32;19.30;;;8.38;;
21645;SDS011;10984;45.712;4.800;2022-12-07T00:29:00;17.30;;;8.48;;
21645;SDS011;10984;45.712;4.800;2022-12-07T00:31:44;17.13;;;8.73;;
21645;SDS011;10984;45.712;4.800;2022-12-07T00:36:55;18.38;;;8.50;;
21645;SDS011;10984;45.712;4.800;2022-12-07T00:39:20;19.98;;;8.40;;
21645;SDS011;10984;45.712;4.800;2022-12-07T00:41:46;17.83;;;8.10;;
21645;SDS011;10984;45.712;4.800;2022-12-07T00:44:11;23.00;;;8.43;;
21645;SDS011;10984;45.712;4.800;2022-12-07T00:46:37;14.98;;;7.68;;
21645;SDS011;10984;45.712;4.800;2022-12-07T00:49:03;19.95;;;8.15;;
21645;SDS011;10984;45.712;4.800;2022-12-07T00:51:28;15.20;;;7.47;;
21645;SDS011;10984;45.712;4.800;2022-12-07T00:53:54;15.82;;;7.03;;
21645;SDS011;10984;45.712;4.800;2022-12-07T01:01:36;14.95;;;6.80;;
21645;SDS011;10984;45.712;4.800;2022-12-07T01:04:02;18.40;;;8.48;;
21645;SDS011;10984;45.712;4.800;2022-12-07T01:06:29;15.50;;;7.90;;
21645;SDS011;10984;45.712;4.800;2022-12-07T01:08:56;17.77;;;8.60;;
21645;SDS011;10984;45.712;4.800;2022-12-07T01:11:23;19.13;;;8.75;;
21645;SDS011;10984;45.712;4.800;2022-12-07T01:16:34;16.88;;;7.88;;
21645;SDS011;10984;45.712;4.800;2022-12-07T01:19:00;18.30;;;8.00;;
21645;SDS011;10984;45.712;4.800;2022-12-07T01:21:30;18.00;;;8.07;;
21645;SDS011;10984;45.712;4.800;2022-12-07T01:24:00;15.10;;;7.72;;
21645;SDS011;10984;45.712;4.800;2022-12-07T01:26:26;16.25;;;7.10;;
21645;SDS011;10984;45.712;4.800;2022-12-07T01:28:52;16.10;;;7.72;;
21645;SDS011;10984;45.712;4.800;2022-12-07T01:31:20;14.23;;;7.07;;
21645;SDS011;10984;45.712;4.800;2022-12-07T01:33:49;19.13;;;7.80;;
21645;SDS011;10984;45.712;4.800;2022-12-07T01:39:03;16.67;;;8.63;;
21645;SDS011;10984;45.712;4.800;2022-12-07T01:41:32;17.52;;;7.72;;
21645;SDS011;10984;45.712;4.800;2022-12-07T01:47:03;16.52;;;8.20;;
21645;SDS011;10984;45.712;4.800;2022-12-07T01:55:03;18.00;;;8.07;;
21645;SDS011;10984;45.712;4.800;2022-12-07T01:57:33;17.80;;;7.63;;
21645;SDS011;10984;45.712;4.800;2022-12-07T02:00:01;17.13;;;7.22;;
21645;SDS011;10984;45.712;4.800;2022-12-07T02:02:30;18.67;;;8.13;;
21645;SDS011;10984;45.712;4.800;2022-12-07T02:05:15;16.80;;;7.53;;
21645;SDS011;10984;45.712;4.800;2022-12-07T02:07:42;20.17;;;9.10;;
21645;SDS011;10984;45.712;4.800;2022-12-07T02:15:44;17.25;;;8.07;;
21645;SDS011;10984;45.712;4.800;2022-12-07T02:32:55;17.25;;;8.23;;
21645;SDS011;10984;45.712;4.800;2022-12-07T02:41:10;21.85;;;8.68;;
21645;SDS011;10984;45.712;4.800;2022-12-07T02:46:26;16.98;;;8.27;;
21645;SDS011;10984;45.712;4.800;2022-12-07T02:48:55;21.92;;;10.27;;
21645;SDS011;10984;45.712;4.800;2022-12-07T02:51:21;18.52;;;8.82;;
21645;SDS011;10984;45.712;4.800;2022-12-07T02:53:47;18.48;;;9.27;;
21645;SDS011;10984;45.712;4.800;2022-12-07T03:11:11;17.88;;;8.57;;
21645;SDS011;10984;45.712;4.800;2022-12-07T03:19:32;22.05;;;9.40;;
21645;SDS011;10984;45.712;4.800;2022-12-07T03:22:00;20.58;;;9.93;;
21645;SDS011;10984;45.712;4.800;2022-12-07T03:24:39;20.17;;;8.57;;
21645;SDS011;10984;45.712;4.800;2022-12-07T03:27:25;17.55;;;8.48;;
21645;SDS011;10984;45.712;4.800;2022-12-07T03:30:20;19.63;;;8.63;;
21645;SDS011;10984;45.712;4.800;2022-12-07T03:32:50;19.20;;;8.25;;
21645;SDS011;10984;45.712;4.800;2022-12-07T03:35:39;16.05;;;8.05;;
21645;SDS011;10984;45.712;4.800;2022-12-07T03:41:31;14.50;;;6.72;;
21645;SDS011;10984;45.712;4.800;2022-12-07T03:43:58;13.90;;;6.72;;
21645;SDS011;10984;45.712;4.800;2022-12-07T03:55:21;15.65;;;6.97;;
21645;SDS011;10984;45.712;4.800;2022-12-07T03:58:09;15.48;;;6.60;;
21645;SDS011;10984;45.712;4.800;2022-12-07T04:00:41;17.55;;;6.53;;
21645;SDS011;10984;45.712;4.800;2022-12-07T04:03:08;20.05;;;7.97;;
21645;SDS011;10984;45.712;4.800;2022-12-07T04:05:34;18.88;;;8.40;;
21645;SDS011;10984;45.712;4.800;2022-12-07T04:08:00;14.23;;;7.15;;
21645;SDS011;10984;45.712;4.800;2022-12-07T04:10:25;17.17;;;6.70;;
21645;SDS011;10984;45.712;4.800;2022-12-07T04:12:51;14.02;;;6.90;;
21645;SDS011;10984;45.712;4.800;2022-12-07T04:15:17;16.17;;;7.38;;
21645;SDS011;10984;45.712;4.800;2022-12-07T04:17:43;14.25;;;6.25;;
21645;SDS011;10984;45.712;4.800;2022-12-07T04:20:09;16.02;;;7.95;;
21645;SDS011;10984;45.712;4.800;2022-12-07T04:22:35;16.20;;;6.97;;
21645;SDS011;10984;45.712;4.800;2022-12-07T04:25:01;14.85;;;7.18;;
21645;SDS011;10984;45.712;4.800;2022-12-07T04:27:26;15.75;;;6.80;;
21645;SDS011;10984;45.712;4.800;2022-12-07T04:29:52;16.85;;;6.85;;
21645;SDS011;10984;45.712;4.800;2022-12-07T04:32:18;13.95;;;6.57;;
21645;SDS011;10984;45.712;4.800;2022-12-07T04:34:43;13.20;;;6.05;;
21645;SDS011;10984;45.712;4.800;2022-12-07T04:37:09;12.13;;;5.75;;
21645;SDS011;10984;45.712;4.800;2022-12-07T04:39:35;13.93;;;6.13;;
21645;SDS011;10984;45.712;4.800;2022-12-07T04:42:00;13.32;;;5.70;;
21645;SDS011;10984;45.712;4.800;2022-12-07T04:44:27;11.35;;;5.30;;
21645;SDS011;10984;45.712;4.800;2022-12-07T04:46:54;11.68;;;5.90;;
21645;SDS011;10984;45.712;4.800;2022-12-07T04:49:20;13.00;;;5.97;;
21645;SDS011;10984;45.712;4.800;2022-12-07T04:51:46;12.85;;;6.20;;
21645;SDS011;10984;45.712;4.800;2022-12-07T04:54:13;15.27;;;6.57;;
21645;SDS011;10984;45.712;4.800;2022-12-07T04:56:39;13.27;;;6.25;;
21645;SDS011;10984;45.712;4.800;2022-12-07T04:59:05;13.50;;;6.03;;
21645;SDS011;10984;45.712;4.800;2022-12-07T05:01:32;11.05;;;5.75;;
21645;SDS011;10984;45.712;4.800;2022-12-07T05:03:58;13.32;;;5.50;;
21645;SDS011;10984;45.712;4.800;2022-12-07T05:06:24;14.88;;;6.10;;
21645;SDS011;10984;45.712;4.800;2022-12-07T05:08:50;15.05;;;5.97;;
21645;SDS011;10984;45.712;4.800;2022-12-07T05:11:15;12.35;;;6.25;;
21645;SDS011;10984;45.712;4.800;2022-12-07T05:14:00;16.55;;;6.43;;
21645;SDS011;10984;45.712;4.800;2022-12-07T05:16:26;12.52;;;5.28;;
21645;SDS011;10984;45.712;4.800;2022-12-07T05:18:53;10.57;;;5.22;;
21645;SDS011;10984;45.712;4.800;2022-12-07T05:21:20;10.95;;;5.05;;
21645;SDS011;10984;45.712;4.800;2022-12-07T05:23:46;13.02;;;6.00;;
21645;SDS011;10984;45.712;4.800;2022-12-07T05:26:11;12.23;;;5.40;;
21645;SDS011;10984;45.712;4.800;2022-12-07T05:28:37;14.80;;;6.40;;
21645;SDS011;10984;45.712;4.800;2022-12-07T05:31:03;12.93;;;5.75;;
21645;SDS011;10984;45.712;4.800;2022-12-07T05:33:29;10.65;;;5.20;;
21645;SDS011;10984;45.712;4.800;2022-12-07T05:35:54;12.98;;;5.43;;
21645;SDS011;10984;45.712;4.800;2022-12-07T05:38:20;13.27;;;5.43;;
21645;SDS011;10984;45.712;4.800;2022-12-07T05:40:46;14.38;;;6.28;;
21645;SDS011;10984;45.712;4.800;2022-12-07T05:43:11;12.13;;;5.45;;
21645;SDS011;10984;45.712;4.800;2022-12-07T05:45:37;12.45;;;5.97;;
21645;SDS011;10984;45.712;4.800;2022-12-07T05:48:02;14.25;;;5.78;;
21645;SDS011;10984;45.712;4.800;2022-12-07T05:50:28;11.15;;;5.20;;
21645;SDS011;10984;45.712;4.800;2022-12-07T05:52:54;13.60;;;6.18;;
21645;SDS011;10984;45.712;4.800;2022-12-07T05:55:20;13.27;;;5.40;;
21645;SDS011;10984;45.712;4.800;2022-12-07T05:57:45;13.73;;;6.15;;
21645;SDS011;10984;45.712;4.800;2022-12-07T06:00:31;11.10;;;5.95;;
21645;SDS011;10984;45.712;4.800;2022-12-07T06:02:57;10.77;;;5.50;;
21645;SDS011;10984;45.712;4.800;2022-12-07T06:05:22;11.95;;;5.38;;
21645;SDS011;10984;45.712;4.800;2022-12-07T06:07:48;11.48;;;5.38;;
21645;SDS011;10984;45.712;4.800;2022-12-07T06:10:14;13.95;;;6.35;;
21645;SDS011;10984;45.712;4.800;2022-12-07T06:12:40;12.95;;;6.35;;
21645;SDS011;10984;45.712;4.800;2022-12-07T06:15:08;14.60;;;6.57;;
21645;SDS011;10984;45.712;4.800;2022-12-07T06:17:35;11.38;;;5.53;;
21645;SDS011;10984;45.712;4.800;2022-12-07T06:20:01;13.82;;;6.00;;
21645;SDS011;10984;45.712;4.800;2022-12-07T06:22:28;10.65;;;6.15;;
21645;SDS011;10984;45.712;4.800;2022-12-07T06:24:53;13.65;;;5.70;;
21645;SDS011;10984;45.712;4.800;2022-12-07T06:27:19;11.43;;;5.40;;
21645;SDS011;10984;45.712;4.800;2022-12-07T06:29:44;11.65;;;5.85;;
21645;SDS011;10984;45.712;4.800;2022-12-07T06:32:10;14.90;;;7.13;;
21645;SDS011;10984;45.712;4.800;2022-12-07T06:34:37;13.48;;;6.43;;
21645;SDS011;10984;45.712;4.800;2022-12-07T06:37:02;14.15;;;6.32;;
21645;SDS011;10984;45.712;4.800;2022-12-07T06:39:28;12.27;;;6.38;;
21645;SDS011;10984;45.712;4.800;2022-12-07T06:41:55;13.15;;;6.18;;
21645;SDS011;10984;45.712;4.800;2022-12-07T06:44:21;12.63;;;5.85;;
21645;SDS011;10984;45.712;4.800;2022-12-07T06:46:48;15.15;;;6.28;;
21645;SDS011;10984;45.712;4.800;2022-12-07T06:49:14;12.40;;;5.93;;
21645;SDS011;10984;45.712;4.800;2022-12-07T06:51:41;13.93;;;6.50;;
21645;SDS011;10984;45.712;4.800;2022-12-07T06:54:08;11.82;;;5.82;;
21645;SDS011;10984;45.712;4.800;2022-12-07T06:56:35;15.20;;;6.32;;
21645;SDS011;10984;45.712;4.800;2022-12-07T06:59:01;11.85;;;5.68;;
21645;SDS011;10984;45.712;4.800;2022-12-07T07:01:27;14.23;;;5.40;;
21645;SDS011;10984;45.712;4.800;2022-12-07T07:03:53;14.45;;;6.70;;
21645;SDS011;10984;45.712;4.800;2022-12-07T07:06:19;12.27;;;5.38;;
21645;SDS011;10984;45.712;4.800;2022-12-07T07:08:44;8.30;;;4.22;;
21645;SDS011;10984;45.712;4.800;2022-12-07T07:11:10;10.05;;;4.65;;
21645;SDS011;10984;45.712;4.800;2022-12-07T07:13:37;11.02;;;4.43;;
21645;SDS011;10984;45.712;4.800;2022-12-07T07:16:02;8.45;;;3.70;;
21645;SDS011;10984;45.712;4.800;2022-12-07T07:18:28;7.97;;;3.70;;
21645;SDS011;10984;45.712;4.800;2022-12-07T07:20:54;11.85;;;5.05;;
21645;SDS011;10984;45.712;4.800;2022-12-07T07:23:20;10.52;;;4.60;;
21645;SDS011;10984;45.712;4.800;2022-12-07T07:25:46;11.55;;;4.22;;
21645;SDS011;10984;45.712;4.800;2022-12-07T07:28:13;10.55;;;5.25;;
21645;SDS011;10984;45.712;4.800;2022-12-07T07:30:39;10.13;;;4.90;;
21645;SDS011;10984;45.712;4.800;2022-12-07T07:33:06;12.38;;;4.82;;
21645;SDS011;10984;45.712;4.800;2022-12-07T07:35:32;12.40;;;5.30;;
21645;SDS011;10984;45.712;4.800;2022-12-07T07:37:59;14.18;;;6.25;;
21645;SDS011;10984;45.712;4.800;2022-12-07T07:40:25;17.65;;;6.05;;
21645;SDS011;10984;45.712;4.800;2022-12-07T07:42:52;12.32;;;5.07;;
21645;SDS011;10984;45.712;4.800;2022-12-07T07:45:19;12.55;;;6.05;;
21645;SDS011;10984;45.712;4.800;2022-12-07T07:47:47;15.20;;;5.57;;
21645;SDS011;10984;45.712;4.800;2022-12-07T07:50:13;13.60;;;6.00;;
21645;SDS011;10984;45.712;4.800;2022-12-07T07:52:39;12.10;;;5.45;;
21645;SDS011;10984;45.712;4.800;2022-12-07T07:55:05;12.68;;;5.32;;
21645;SDS011;10984;45.712;4.800;2022-12-07T07:57:33;11.25;;;5.15;;
21645;SDS011;10984;45.712;4.800;2022-12-07T07:59:59;11.90;;;5.70;;
21645;SDS011;10984;45.712;4.800;2022-12-07T08:02:25;16.58;;;6.60;;
21645;SDS011;10984;45.712;4.800;2022-12-07T08:04:51;13.57;;;6.07;;
21645;SDS011;10984;45.712;4.800;2022-12-07T08:07:16;11.43;;;4.72;;
21645;SDS011;10984;45.712;4.800;2022-12-07T08:09:42;12.93;;;5.80;;
21645;SDS011;10984;45.712;4.800;2022-12-07T08:12:07;13.18;;;6.15;;
21645;SDS011;10984;45.712;4.800;2022-12-07T08:14:33;12.60;;;5.00;;
21645;SDS011;10984;45.712;4.800;2022-12-07T08:16:59;11.15;;;5.20;;
21645;SDS011;10984;45.712;4.800;2022-12-07T08:19:26;12.82;;;5.70;;
21645;SDS011;10984;45.712;4.800;2022-12-07T08:21:51;11.05;;;5.18;;
21645;SDS011;10984;45.712;4.800;2022-12-07T08:24:17;13.00;;;5.75;;
21645;SDS011;10984;45.712;4.800;2022-12-07T08:26:43;13.88;;;6.00;;
21645;SDS011;10984;45.712;4.800;2022-12-07T08:29:09;13.50;;;5.55;;
21645;SDS011;10984;45.712;4.800;2022-12-07T08:31:34;11.35;;;5.15;;
21645;SDS011;10984;45.712;4.800;2022-12-07T08:34:01;16.50;;;6.18;;
21645;SDS011;10984;45.712;4.800;2022-12-07T08:36:26;13.80;;;6.18;;
21645;SDS011;10984;45.712;4.800;2022-12-07T08:38:53;13.13;;;5.57;;
21645;SDS011;10984;45.712;4.800;2022-12-07T08:41:18;13.90;;;5.95;;
21645;SDS011;10984;45.712;4.800;2022-12-07T08:43:44;13.25;;;6.32;;
21645;SDS011;10984;45.712;4.800;2022-12-07T08:46:11;12.75;;;6.05;;
21645;SDS011;10984;45.712;4.800;2022-12-07T08:49:02;11.25;;;5.75;;
21645;SDS011;10984;45.712;4.800;2022-12-07T08:51:31;16.25;;;6.88;;
21645;SDS011;10984;45.712;4.800;2022-12-07T08:53:57;15.73;;;6.35;;
21645;SDS011;10984;45.712;4.800;2022-12-07T08:56:25;16.20;;;7.03;;
21645;SDS011;10984;45.712;4.800;2022-12-07T08:58:51;15.30;;;6.00;;
21645;SDS011;10984;45.712;4.800;2022-12-07T09:01:17;15.30;;;6.40;;
21645;SDS011;10984;45.712;4.800;2022-12-07T09:03:43;13.00;;;5.70;;
21645;SDS011;10984;45.712;4.800;2022-12-07T09:06:09;14.68;;;5.97;;
21645;SDS011;10984;45.712;4.800;2022-12-07T09:08:36;13.00;;;6.55;;
21645;SDS011;10984;45.712;4.800;2022-12-07T09:11:07;13.07;;;5.75;;
21645;SDS011;10984;45.712;4.800;2022-12-07T09:13:32;14.77;;;6.60;;
21645;SDS011;10984;45.712;4.800;2022-12-07T09:15:58;11.95;;;5.15;;
21645;SDS011;10984;45.712;4.800;2022-12-07T09:18:24;12.10;;;5.47;;
21645;SDS011;10984;45.712;4.800;2022-12-07T09:20:49;12.30;;;5.60;;
21645;SDS011;10984;45.712;4.800;2022-12-07T09:23:15;13.88;;;5.90;;
21645;SDS011;10984;45.712;4.800;2022-12-07T09:25:41;14.45;;;5.97;;
21645;SDS011;10984;45.712;4.800;2022-12-07T09:28:07;10.80;;;5.05;;
21645;SDS011;10984;45.712;4.800;2022-12-07T09:30:33;13.48;;;5.22;;
21645;SDS011;10984;45.712;4.800;2022-12-07T09:32:59;11.25;;;5.68;;
21645;SDS011;10984;45.712;4.800;2022-12-07T09:35:25;10.65;;;4.63;;
21645;SDS011;10984;45.712;4.800;2022-12-07T09:37:51;12.85;;;5.20;;
21645;SDS011;10984;45.712;4.800;2022-12-07T09:40:18;11.35;;;4.82;;
21645;SDS011;10984;45.712;4.800;2022-12-07T09:42:47;11.20;;;5.68;;
21645;SDS011;10984;45.712;4.800;2022-12-07T09:45:25;10.55;;;5.10;;
21645;SDS011;10984;45.712;4.800;2022-12-07T09:47:57;13.27;;;5.38;;
21645;SDS011;10984;45.712;4.800;2022-12-07T09:50:25;10.77;;;5.55;;
21645;SDS011;10984;45.712;4.800;2022-12-07T09:52:53;13.13;;;6.00;;
21645;SDS011;10984;45.712;4.800;2022-12-07T09:55:27;10.27;;;5.13;;
21645;SDS011;10984;45.712;4.800;2022-12-07T09:57:54;13.55;;;5.80;;
21645;SDS011;10984;45.712;4.800;2022-12-07T10:00:21;10.68;;;4.57;;
21645;SDS011;10984;45.712;4.800;2022-12-07T10:02:50;12.02;;;5.68;;
21645;SDS011;10984;45.712;4.800;2022-12-07T10:05:37;14.38;;;5.78;;
21645;SDS011;10984;45.712;4.800;2022-12-07T10:08:07;14.18;;;6.90;;
21645;SDS011;10984;45.712;4.800;2022-12-07T10:10:35;10.18;;;4.72;;
21645;SDS011;10984;45.712;4.800;2022-12-07T10:13:06;12.52;;;5.75;;
21645;SDS011;10984;45.712;4.800;2022-12-07T10:15:52;11.13;;;5.30;;
21645;SDS011;10984;45.712;4.800;2022-12-07T10:26:58;13.60;;;5.88;;
21645;SDS011;10984;45.712;4.800;2022-12-07T10:38:07;14.32;;;6.07;;
21645;SDS011;10984;45.712;4.800;2022-12-07T10:40:41;11.52;;;5.78;;
21645;SDS011;10984;45.712;4.800;2022-12-07T10:57:30;17.83;;;6.95;;
21645;SDS011;10984;45.712;4.800;2022-12-07T11:41:11;19.27;;;7.82;;
21645;SDS011;10984;45.712;4.800;2022-12-07T11:43:42;20.02;;;7.20;;
21645;SDS011;10984;45.712;4.800;2022-12-07T11:46:51;16.70;;;7.70;;
21645;SDS011;10984;45.712;4.800;2022-12-07T11:52:27;17.83;;;7.45;;
21645;SDS011;10984;45.712;4.800;2022-12-07T11:55:05;18.98;;;8.07;;
21645;SDS011;10984;45.712;4.800;2022-12-07T11:57:45;19.27;;;8.43;;
21645;SDS011;10984;45.712;4.800;2022-12-07T12:00:16;19.02;;;8.38;;
21645;SDS011;10984;45.712;4.800;2022-12-07T12:05:41;18.02;;;8.13;;
21645;SDS011;10984;45.712;4.800;2022-12-07T12:13:43;17.40;;;7.22;;
21645;SDS011;10984;45.712;4.800;2022-12-07T12:19:36;14.07;;;6.35;;
21645;SDS011;10984;45.712;4.800;2022-12-07T12:24:57;17.77;;;7.57;;
21645;SDS011;10984;45.712;4.800;2022-12-07T12:27:26;13.68;;;7.60;;
21645;SDS011;10984;45.712;4.800;2022-12-07T12:29:57;20.20;;;9.05;;
21645;SDS011;10984;45.712;4.800;2022-12-07T12:41:02;17.05;;;7.25;;
21645;SDS011;10984;45.712;4.800;2022-12-07T12:51:44;16.80;;;7.57;;
21645;SDS011;10984;45.712;4.800;2022-12-07T12:54:30;14.70;;;6.70;;
21645;SDS011;10984;45.712;4.800;2022-12-07T13:00:01;17.55;;;8.35;;
21645;SDS011;10984;45.712;4.800;2022-12-07T13:05:26;20.27;;;8.15;;
21645;SDS011;10984;45.712;4.800;2022-12-07T13:07:55;17.20;;;7.43;;
21645;SDS011;10984;45.712;4.800;2022-12-07T13:10:41;18.15;;;7.63;;
21645;SDS011;10984;45.712;4.800;2022-12-07T13:18:39;18.85;;;8.18;;
21645;SDS011;10984;45.712;4.800;2022-12-07T13:29:20;18.30;;;7.85;;
21645;SDS011;10984;45.712;4.800;2022-12-07T13:34:45;20.25;;;9.75;;
21645;SDS011;10984;45.712;4.800;2022-12-07T13:44:50;15.68;;;7.55;;
21645;SDS011;10984;45.712;4.800;2022-12-07T13:50:02;20.75;;;8.52;;
21645;SDS011;10984;45.712;4.800;2022-12-07T13:52:46;23.58;;;8.07;;
21645;SDS011;10984;45.712;4.800;2022-12-07T13:55:14;17.55;;;8.30;;
21645;SDS011;10984;45.712;4.800;2022-12-07T13:57:42;18.88;;;8.48;;
21645;SDS011;10984;45.712;4.800;2022-12-07T14:02:56;18.13;;;8.18;;
21645;SDS011;10984;45.712;4.800;2022-12-07T14:05:43;17.05;;;8.20;;
21645;SDS011;10984;45.712;4.800;2022-12-07T14:18:56;17.75;;;7.70;;
21645;SDS011;10984;45.712;4.800;2022-12-07T14:21:25;19.13;;;8.55;;
21645;SDS011;10984;45.712;4.800;2022-12-07T14:26:41;17.88;;;8.50;;
21645;SDS011;10984;45.712;4.800;2022-12-07T14:31:53;18.90;;;8.68;;
21645;SDS011;10984;45.712;4.800;2022-12-07T14:34:20;19.55;;;8.35;;
21645;SDS011;10984;45.712;4.800;2022-12-07T14:36:47;15.10;;;7.07;;
21645;SDS011;10984;45.712;4.800;2022-12-07T14:39:13;15.95;;;6.10;;
21645;SDS011;10984;45.712;4.800;2022-12-07T14:41:38;17.25;;;7.40;;
21645;SDS011;10984;45.712;4.800;2022-12-07T14:44:23;15.63;;;7.47;;
21645;SDS011;10984;45.712;4.800;2022-12-07T14:46:49;15.85;;;6.90;;
21645;SDS011;10984;45.712;4.800;2022-12-07T14:49:15;14.55;;;7.07;;
21645;SDS011;10984;45.712;4.800;2022-12-07T14:51:42;14.90;;;5.95;;
21645;SDS011;10984;45.712;4.800;2022-12-07T14:54:19;17.48;;;7.05;;
21645;SDS011;10984;45.712;4.800;2022-12-07T14:56:45;16.25;;;6.70;;
21645;SDS011;10984;45.712;4.800;2022-12-07T14:59:15;20.05;;;8.07;;
21645;SDS011;10984;45.712;4.800;2022-12-07T15:01:41;14.18;;;6.55;;
21645;SDS011;10984;45.712;4.800;2022-12-07T15:04:06;19.02;;;7.40;;
21645;SDS011;10984;45.712;4.800;2022-12-07T15:06:32;19.42;;;8.73;;
21645;SDS011;10984;45.712;4.800;2022-12-07T15:08:58;18.55;;;7.50;;
21645;SDS011;10984;45.712;4.800;2022-12-07T15:11:24;17.80;;;8.32;;
21645;SDS011;10984;45.712;4.800;2022-12-07T15:13:49;22.23;;;10.30;;
21645;SDS011;10984;45.712;4.800;2022-12-07T15:16:34;20.55;;;9.50;;
21645;SDS011;10984;45.712;4.800;2022-12-07T15:19:01;20.10;;;9.88;;
21645;SDS011;10984;45.712;4.800;2022-12-07T15:21:27;22.20;;;9.25;;
21645;SDS011;10984;45.712;4.800;2022-12-07T15:23:53;18.30;;;9.27;;
21645;SDS011;10984;45.712;4.800;2022-12-07T15:26:18;20.10;;;9.55;;
21645;SDS011;10984;45.712;4.800;2022-12-07T15:28:44;22.35;;;9.63;;
21645;SDS011;10984;45.712;4.800;2022-12-07T15:31:13;17.83;;;9.32;;
21645;SDS011;10984;45.712;4.800;2022-12-07T15:33:40;20.67;;;9.73;;
21645;SDS011;10984;45.712;4.800;2022-12-07T15:36:06;21.38;;;9.13;;
21645;SDS011;10984;45.712;4.800;2022-12-07T15:38:33;17.83;;;8.40;;
21645;SDS011;10984;45.712;4.800;2022-12-07T15:40:58;20.20;;;8.98;;
21645;SDS011;10984;45.712;4.800;2022-12-07T15:43:24;24.02;;;9.10;;
21645;SDS011;10984;45.712;4.800;2022-12-07T15:46:08;20.05;;;8.77;;
21645;SDS011;10984;45.712;4.800;2022-12-07T15:48:34;20.33;;;7.82;;
21645;SDS011;10984;45.712;4.800;2022-12-07T15:53:44;17.15;;;9.07;;
21645;SDS011;10984;45.712;4.800;2022-12-07T15:56:09;19.15;;;9.40;;
21645;SDS011;10984;45.712;4.800;2022-12-07T15:58:35;23.83;;;10.65;;
21645;SDS011;10984;45.712;4.800;2022-12-07T16:01:08;20.67;;;10.18;;
21645;SDS011;10984;45.712;4.800;2022-12-07T16:03:35;20.13;;;9.85;;
21645;SDS011;10984;45.712;4.800;2022-12-07T16:06:01;19.95;;;10.18;;
21645;SDS011;10984;45.712;4.800;2022-12-07T16:08:26;23.10;;;10.35;;
21645;SDS011;10984;45.712;4.800;2022-12-07T16:10:52;20.83;;;10.40;;
21645;SDS011;10984;45.712;4.800;2022-12-07T16:13:18;19.30;;;9.02;;
21645;SDS011;10984;45.712;4.800;2022-12-07T16:15:44;23.45;;;10.93;;
21645;SDS011;10984;45.712;4.800;2022-12-07T16:18:10;20.58;;;9.18;;
21645;SDS011;10984;45.712;4.800;2022-12-07T16:20:35;20.77;;;10.30;;
21645;SDS011;10984;45.712;4.800;2022-12-07T16:23:01;20.33;;;10.05;;
21645;SDS011;10984;45.712;4.800;2022-12-07T16:25:27;19.23;;;8.70;;
21645;SDS011;10984;45.712;4.800;2022-12-07T16:27:53;23.63;;;11.05;;
21645;SDS011;10984;45.712;4.800;2022-12-07T16:30:19;17.73;;;8.77;;
21645;SDS011;10984;45.712;4.800;2022-12-07T16:32:45;18.80;;;8.25;;
21645;SDS011;10984;45.712;4.800;2022-12-07T16:35:10;18.77;;;7.90;;
21645;SDS011;10984;45.712;4.800;2022-12-07T16:37:37;17.25;;;8.98;;
21645;SDS011;10984;45.712;4.800;2022-12-07T16:40:03;19.33;;;9.40;;
21645;SDS011;10984;45.712;4.800;2022-12-07T16:45:14;16.65;;;7.90;;
21645;SDS011;10984;45.712;4.800;2022-12-07T16:47:40;19.45;;;8.85;;
21645;SDS011;10984;45.712;4.800;2022-12-07T16:50:06;17.13;;;8.20;;
21645;SDS011;10984;45.712;4.800;2022-12-07T16:52:32;18.75;;;7.45;;
21645;SDS011;10984;45.712;4.800;2022-12-07T16:54:58;20.33;;;7.70;;
21645;SDS011;10984;45.712;4.800;2022-12-07T16:57:24;14.85;;;8.35;;
21645;SDS011;10984;45.712;4.800;2022-12-07T16:59:51;16.48;;;7.78;;
21645;SDS011;10984;45.712;4.800;2022-12-07T17:02:17;20.55;;;8.27;;
21645;SDS011;10984;45.712;4.800;2022-12-07T17:04:43;17.80;;;8.57;;
21645;SDS011;10984;45.712;4.800;2022-12-07T17:07:09;16.92;;;7.75;;
21645;SDS011;10984;45.712;4.800;2022-12-07T17:09:35;17.63;;;8.88;;
21645;SDS011;10984;45.712;4.800;2022-12-07T17:12:01;20.45;;;9.00;;
21645;SDS011;10984;45.712;4.800;2022-12-07T17:14:27;21.10;;;8.73;;
21645;SDS011;10984;45.712;4.800;2022-12-07T17:17:11;17.00;;;7.72;;
21645;SDS011;10984;45.712;4.800;2022-12-07T17:19:37;19.38;;;8.75;;
21645;SDS011;10984;45.712;4.800;2022-12-07T17:22:03;18.13;;;7.93;;
21645;SDS011;10984;45.712;4.800;2022-12-07T17:24:29;17.63;;;8.65;;
21645;SDS011;10984;45.712;4.800;2022-12-07T17:26:55;17.27;;;8.60;;
21645;SDS011;10984;45.712;4.800;2022-12-07T17:29:20;19.23;;;7.88;;
21645;SDS011;10984;45.712;4.800;2022-12-07T17:31:47;16.30;;;8.48;;
21645;SDS011;10984;45.712;4.800;2022-12-07T17:34:14;17.98;;;9.27;;
21645;SDS011;10984;45.712;4.800;2022-12-07T17:36:40;17.20;;;8.10;;
21645;SDS011;10984;45.712;4.800;2022-12-07T17:39:07;14.82;;;8.00;;
21645;SDS011;10984;45.712;4.800;2022-12-07T17:41:35;17.20;;;8.65;;
21645;SDS011;10984;45.712;4.800;2022-12-07T17:44:20;20.92;;;9.27;;
21645;SDS011;10984;45.712;4.800;2022-12-07T17:46:47;32.88;;;9.48;;
21645;SDS011;10984;45.712;4.800;2022-12-07T17:49:15;17.88;;;8.15;;
21645;SDS011;10984;45.712;4.800;2022-12-07T17:51:41;17.05;;;8.07;;
21645;SDS011;10984;45.712;4.800;2022-12-07T17:54:26;16.50;;;8.02;;
21645;SDS011;10984;45.712;4.800;2022-12-07T17:56:51;18.40;;;8.38;;
21645;SDS011;10984;45.712;4.800;2022-12-07T17:59:17;16.95;;;8.68;;
21645;SDS011;10984;45.712;4.800;2022-12-07T18:01:42;15.35;;;7.38;;
21645;SDS011;10984;45.712;4.800;2022-12-07T18:04:09;15.50;;;7.68;;
21645;SDS011;10984;45.712;4.800;2022-12-07T18:06:35;17.75;;;8.45;;
21645;SDS011;10984;45.712;4.800;2022-12-07T18:09:01;16.58;;;8.15;;
21645;SDS011;10984;45.712;4.800;2022-12-07T18:11:27;15.60;;;8.20;;
21645;SDS011;10984;45.712;4.800;2022-12-07T18:13:53;18.08;;;8.80;;
21645;SDS011;10984;45.712;4.800;2022-12-07T18:16:20;17.27;;;8.60;;
21645;SDS011;10984;45.712;4.800;2022-12-07T18:18:48;19.15;;;8.50;;
21645;SDS011;10984;45.712;4.800;2022-12-07T18:24:00;17.23;;;8.20;;
21645;SDS011;10984;45.712;4.800;2022-12-07T18:26:27;19.70;;;8.70;;
21645;SDS011;10984;45.712;4.800;2022-12-07T18:28:53;18.38;;;7.80;;
21645;SDS011;10984;45.712;4.800;2022-12-07T18:31:19;17.42;;;8.52;;
21645;SDS011;10984;45.712;4.800;2022-12-07T18:33:45;17.40;;;8.38;;
21645;SDS011;10984;45.712;4.800;2022-12-07T18:36:12;18.27;;;9.20;;
21645;SDS011;10984;45.712;4.800;2022-12-07T18:38:39;33.35;;;13.13;;
21645;SDS011;10984;45.712;4.800;2022-12-07T18:43:49;26.63;;;12.73;;
21645;SDS011;10984;45.712;4.800;2022-12-07T18:46:15;26.83;;;12.02;;
21645;SDS011;10984;45.712;4.800;2022-12-07T18:49:00;16.63;;;9.57;;
21645;SDS011;10984;45.712;4.800;2022-12-07T18:51:27;21.02;;;9.73;;
21645;SDS011;10984;45.712;4.800;2022-12-07T18:56:37;17.65;;;8.60;;
21645;SDS011;10984;45.712;4.800;2022-12-07T18:59:03;16.80;;;8.15;;
21645;SDS011;10984;45.712;4.800;2022-12-07T19:01:49;14.80;;;8.23;;